Darstellungsparameter: Aktuell verwendete Einstellungen:
Skalierung der Graphiken ... ?
xyx+y,   Skalierungsfaktor:      Skalierung: Modus: x, Faktor: 1
Darstellungszeitraum ... ?
Vom - - bis: - -   Zeitraum: 29.05.2009 - 04.06.2009
Min/Max/Avg-Anzeige ... ?
Zeige MMA aktuell
Zeige MMA Monat
Zeige MMA alles
Zeige --A aktuell
Zeige --A Monat
Zeige --A alles
Keine MMA-Anzeige
MMA:
Keine MMA-Graphiken
MMA-Basis: 29.05.2009 - 04.06.2009
Quicknavigation für Darstellung... ?
Tage:      1T, 2T, 3T, 5T -1T -2T -3T -5T +1T +2T +3T +5T
Wochen: 1W, 2W, 3W -1W -2W -3W +1W +2W +3W
Monate: 1M, 3M, 6M -1M -3M -6M +1M +3M +6M
Jahre:    1J, 3J, 5J, 10J -1J -3J -5J -10J +1J +3J +5J +10J
Nutze für die Darstellung ... ?
Originaldaten oder Mittelwerte auf ...
Stundenbasis Tagesbasis Wochenbasis
Monatsbasis Jahresbasis      Datenbasis: Original-Daten
Darstellen als:
Statistik (Auto) Statistik J:M      Darstellung:
Zur Graphik,    zurück zur Übersicht aller Sensoren.
 
Tabellarische Datenbersicht: ?
 
Sensor: Nr:Datum:Temp:Abs-Feuchte:Windchill:Wind:
Aussen-T/F 1 29-05-2009 00:11:31 15.6 C 7.71 g/m*3 15.6 C 0 km/h
2 29-05-2009 00:23:31 15.4 C 7.62 g/m*3 15.4 C 0 km/h
3 29-05-2009 00:35:31 15.1 C 7.61 g/m*3 15.1 C 0 km/h
4 29-05-2009 00:47:31 14.6 C 7.76 g/m*3 14.6 C 0 km/h
5 29-05-2009 00:59:31 14.2 C 7.69 g/m*3 14.2 C 0 km/h
6 29-05-2009 01:11:32 13.9 C 7.91 g/m*3 13.9 C 0 km/h
7 29-05-2009 01:23:32 13.5 C 7.84 g/m*3 13.5 C 0 km/h
8 29-05-2009 01:35:32 13.2 C 7.92 g/m*3 13.2 C 0 km/h
9 29-05-2009 01:47:32 13 C 7.94 g/m*3 13 C 0 km/h
10 29-05-2009 01:59:32 12.8 C 8.06 g/m*3 12.8 C 0 km/h
11 29-05-2009 02:11:32 12.5 C 8.03 g/m*3 12.5 C 0 km/h
12 29-05-2009 02:23:32 12.2 C 7.88 g/m*3 12.2 C 0 km/h
13 29-05-2009 02:35:32 12.1 C 7.94 g/m*3 12.1 C 0 km/h
14 29-05-2009 02:47:32 11.8 C 8 g/m*3 11.8 C 0 km/h
15 29-05-2009 02:59:32 11.6 C 8 g/m*3 11.6 C 0 km/h
16 29-05-2009 03:11:32 11.4 C 8.01 g/m*3 11.4 C 0 km/h
17 29-05-2009 03:23:32 11.1 C 7.86 g/m*3 11.1 C 0 km/h
18 29-05-2009 03:35:32 10.8 C 7.81 g/m*3 10.8 C 0 km/h
19 29-05-2009 03:47:32 10.6 C 7.71 g/m*3 10.6 C 0 km/h
20 29-05-2009 03:59:32 10.5 C 7.76 g/m*3 10.5 C 0 km/h
21 29-05-2009 04:11:32 10.2 C 7.61 g/m*3 10.2 C 0 km/h
22 29-05-2009 04:23:32 10.1 C 7.56 g/m*3 10.1 C 0 km/h
23 29-05-2009 04:35:32 9.9 C 7.56 g/m*3 9.9 C 0 km/h
24 29-05-2009 04:47:32 9.7 C 7.56 g/m*3 9.7 C 0 km/h
25 29-05-2009 04:59:32 9.6 C 7.51 g/m*3 9.6 C 0 km/h
Sensor: Nr:Datum:Temp:Abs-Feuchte:Windchill:Wind:
Aussen-T/F 26 29-05-2009 05:11:33 9.4 C 7.42 g/m*3 9.4 C 0 km/h
27 29-05-2009 05:23:33 9.4 C 7.51 g/m*3 9.4 C 0 km/h
28 29-05-2009 05:35:33 9.4 C 7.6 g/m*3 9.4 C 0 km/h
29 29-05-2009 05:47:33 9.3 C 7.55 g/m*3 9.3 C 0 km/h
30 29-05-2009 05:59:33 9.2 C 7.59 g/m*3 9.2 C 0 km/h
31 29-05-2009 06:11:33 9.1 C 7.54 g/m*3 9.1 C 0 km/h
32 29-05-2009 06:23:33 9.1 C 7.63 g/m*3 9.1 C 0 km/h
33 29-05-2009 06:35:33 9.2 C 7.68 g/m*3 9.2 C 0 km/h
34 29-05-2009 06:47:33 9.2 C 7.68 g/m*3 9.2 C 0 km/h
35 29-05-2009 06:59:33 9.3 C 7.73 g/m*3 9.3 C 0 km/h
36 29-05-2009 07:11:31 9.5 C 7.83 g/m*3 9.5 C 0 km/h
37 29-05-2009 07:23:30 9.5 C 7.74 g/m*3 9.5 C 0 km/h
38 29-05-2009 07:35:31 9.7 C 7.84 g/m*3 9.7 C 0 km/h
39 29-05-2009 07:47:30 9.8 C 7.79 g/m*3 9.8 C 0 km/h
40 29-05-2009 07:59:30 10.2 C 7.9 g/m*3 10.2 C 0 km/h
41 29-05-2009 08:11:30 10.5 C 7.76 g/m*3 10.5 C 0 km/h
42 29-05-2009 08:23:30 11.1 C 7.05 g/m*3 11.1 C 0 km/h
43 29-05-2009 08:35:30 11.4 C 6.47 g/m*3 11.4 C 0 km/h
44 29-05-2009 08:47:29 11.8 C 6.31 g/m*3 11.8 C 0 km/h
45 29-05-2009 08:59:29 12.2 C 6.15 g/m*3 12.2 C 0 km/h
46 29-05-2009 09:11:29 12.7 C 5.57 g/m*3 12.7 C 0 km/h
47 29-05-2009 09:23:30 13.2 C 5.17 g/m*3 13.2 C 0 km/h
48 29-05-2009 09:35:29 13.6 C 4.71 g/m*3 13.6 C 0 km/h
49 29-05-2009 09:47:29 13.9 C 4.68 g/m*3 13.9 C 0 km/h
50 29-05-2009 09:59:29 14.1 C 3.76 g/m*3 14.1 C 0 km/h
Sensor: Nr:Datum:Temp:Abs-Feuchte:Windchill:Wind:
Aussen-T/F 51 29-05-2009 10:11:29 14.7 C 3.9 g/m*3 14.7 C 0 km/h
52 29-05-2009 10:23:29 15 C 4.1 g/m*3 15 C 0 km/h
53 29-05-2009 10:35:28 15.9 C 4.33 g/m*3 15.9 C 0 km/h
54 29-05-2009 10:47:29 15.7 C 4.01 g/m*3 15.7 C 0 km/h
55 29-05-2009 10:59:29 16.6 C 4.24 g/m*3 16.6 C 0 km/h
56 29-05-2009 11:11:28 17.5 C 3.73 g/m*3 17.5 C 0 km/h
57 29-05-2009 11:23:28 17 C 3.04 g/m*3 17 C 0 km/h
58 29-05-2009 11:35:28 17.6 C 3.75 g/m*3 17.6 C 0 km/h
59 29-05-2009 11:47:28 18.8 C 3.7 g/m*3 18.8 C 0 km/h
60 29-05-2009 11:59:28 19.6 C 3.55 g/m*3 19.6 C 0 km/h
61 29-05-2009 12:11:28 20.3 C 3.52 g/m*3 20.3 C 0 km/h
62 29-05-2009 12:23:27 20.4 C 3.54 g/m*3 20.4 C 0 km/h
63 29-05-2009 12:35:28 21.7 C 3.82 g/m*3 21.7 C 0 km/h
64 29-05-2009 12:47:27 22.6 C 4.02 g/m*3 22.6 C 0 km/h
65 29-05-2009 12:59:27 23.2 C 4.16 g/m*3 23.2 C 0 km/h
66 29-05-2009 13:11:27 23.4 C 4.21 g/m*3 23.4 C 0 km/h
67 29-05-2009 13:23:27 23.7 C 4.28 g/m*3 23.7 C 0 km/h
68 29-05-2009 13:35:27 24.7 C 4.53 g/m*3 24.7 C 0 km/h
69 29-05-2009 13:47:27 24.8 C 4.55 g/m*3 24.8 C 0 km/h
70 29-05-2009 13:59:27 24 C 4.35 g/m*3 24 C 0 km/h
71 29-05-2009 14:11:26 23 C 4.11 g/m*3 23 C 0 km/h
72 29-05-2009 14:23:26 23.1 C 4.13 g/m*3 23.1 C 0 km/h
73 29-05-2009 14:35:26 22.6 C 4.02 g/m*3 22.6 C 0 km/h
74 29-05-2009 14:47:26 23.3 C 4.18 g/m*3 23.3 C 0 km/h
75 29-05-2009 14:59:26 24.6 C 4.5 g/m*3 24.6 C 0 km/h
Sensor: Nr:Datum:Temp:Abs-Feuchte:Windchill:Wind:
Aussen-T/F 76 29-05-2009 15:11:26 25 C 4.6 g/m*3 25 C 0 km/h
77 29-05-2009 15:23:26 25.6 C 4.76 g/m*3 25.6 C 0 km/h
78 29-05-2009 15:35:26 26.6 C 5.03 g/m*3 26.6 C 0 km/h
79 29-05-2009 15:47:26 26.2 C 4.92 g/m*3 26.2 C 0 km/h
80 29-05-2009 15:59:26 26.1 C 4.9 g/m*3 26.1 C 0 km/h
81 29-05-2009 16:11:25 27.3 C 5.23 g/m*3 27.3 C 0 km/h
82 29-05-2009 16:23:25 27.4 C 5.26 g/m*3 27.4 C 0 km/h
83 29-05-2009 16:35:25 28.4 C 5.56 g/m*3 28.4 C 0 km/h
84 29-05-2009 16:47:25 27.8 C 5.38 g/m*3 27.8 C 0 km/h
85 29-05-2009 16:59:25 26.4 C 4.98 g/m*3 26.4 C 0 km/h
86 29-05-2009 17:11:24 28 C 5.44 g/m*3 28 C 0 km/h
87 29-05-2009 17:23:25 28 C 5.44 g/m*3 28 C 0 km/h
88 29-05-2009 17:35:25 29 C 5.74 g/m*3 29 C 0 km/h
89 29-05-2009 17:47:24 28.8 C 5.68 g/m*3 28.8 C 0 km/h
90 29-05-2009 17:59:24 28.3 C 5.53 g/m*3 28.3 C 0 km/h
91 29-05-2009 18:11:25 27.9 C 5.41 g/m*3 27.9 C 0 km/h
92 29-05-2009 18:23:24 28.6 C 5.62 g/m*3 28.6 C 0 km/h
93 29-05-2009 18:35:24 28.7 C 5.65 g/m*3 28.7 C 0 km/h
94 29-05-2009 18:47:24 27.6 C 5.32 g/m*3 27.6 C 0 km/h
95 29-05-2009 18:59:24 27.1 C 5.18 g/m*3 27.1 C 0 km/h
96 29-05-2009 19:11:24 26.9 C 5.12 g/m*3 26.9 C 0 km/h
97 29-05-2009 19:23:24 26.8 C 5.09 g/m*3 26.8 C 0 km/h
98 29-05-2009 19:35:23 26.6 C 5.03 g/m*3 26.6 C 0 km/h
99 29-05-2009 19:47:24 26.2 C 4.92 g/m*3 26.2 C 0 km/h
100 29-05-2009 19:59:24 25.5 C 4.73 g/m*3 25.5 C 0 km/h
Sensor: Nr:Datum:Temp:Abs-Feuchte:Windchill:Wind:
Aussen-T/F 101 29-05-2009 20:11:23 24.5 C 4.48 g/m*3 24.5 C 0 km/h
102 29-05-2009 20:23:23 23.7 C 4.28 g/m*3 23.7 C 0 km/h
103 29-05-2009 20:35:02 23.2 C 4.16 g/m*3 23.2 C 0 km/h
104 29-05-2009 20:47:02 22.5 C 4.39 g/m*3 22.5 C 0 km/h
105 29-05-2009 20:59:02 21.6 C 5.12 g/m*3 21.6 C 0 km/h
106 29-05-2009 21:11:02 20.2 C 5.07 g/m*3 20.2 C 0 km/h
107 29-05-2009 21:23:02 19.1 C 4.92 g/m*3 19.1 C 0 km/h
108 29-05-2009 21:35:01 18.4 C 5.03 g/m*3 18.4 C 0 km/h
109 29-05-2009 21:47:02 18.1 C 4.94 g/m*3 18.1 C 0 km/h
110 29-05-2009 21:59:02 18 C 4.92 g/m*3 18 C 0 km/h
111 29-05-2009 22:11:01 17.8 C 5.16 g/m*3 17.8 C 0 km/h
112 29-05-2009 22:23:01 17.4 C 5.04 g/m*3 17.4 C 0 km/h
113 29-05-2009 22:35:01 16.8 C 5.15 g/m*3 16.8 C 0 km/h
114 29-05-2009 22:48:02 16.4 C 5.02 g/m*3 16.4 C 0 km/h
115 29-05-2009 23:00:02 16.2 C 5.1 g/m*3 16.2 C 0 km/h
116 29-05-2009 23:12:02 15.7 C 5.08 g/m*3 15.7 C 0 km/h
117 29-05-2009 23:24:03 15.4 C 5.12 g/m*3 15.4 C 0 km/h
118 29-05-2009 23:36:03 15 C 5.13 g/m*3 15 C 0 km/h
119 29-05-2009 23:48:03 14.5 C 5.6 g/m*3 14.5 C 0 km/h
120 30-05-2009 00:00:03 14.4 C 5.44 g/m*3 14.4 C 0 km/h
121 30-05-2009 00:12:03 14.3 C 5.65 g/m*3 14.3 C 0 km/h
122 30-05-2009 00:24:03 14.1 C 5.46 g/m*3 14.1 C 0 km/h
123 30-05-2009 00:36:03 13.8 C 5.48 g/m*3 13.8 C 0 km/h
124 30-05-2009 00:48:03 13.5 C 5.38 g/m*3 13.5 C 0 km/h
125 30-05-2009 01:00:03 13.4 C 5.46 g/m*3 13.4 C 0 km/h
Sensor: Nr:Datum:Temp:Abs-Feuchte:Windchill:Wind:
Aussen-T/F 126 30-05-2009 01:12:03 13 C 5.67 g/m*3 13 C 0 km/h
127 30-05-2009 01:24:03 12.8 C 5.71 g/m*3 12.8 C 0 km/h
128 30-05-2009 01:36:03 12.7 C 5.57 g/m*3 12.7 C 0 km/h
129 30-05-2009 01:48:03 12.4 C 5.79 g/m*3 12.4 C 0 km/h
130 30-05-2009 02:00:03 12.1 C 5.9 g/m*3 12.1 C 0 km/h
131 30-05-2009 02:12:03 11.9 C 6.04 g/m*3 11.9 C 0 km/h
132 30-05-2009 02:24:03 11.6 C 6.03 g/m*3 11.6 C 0 km/h
133 30-05-2009 02:36:03 11.5 C 5.99 g/m*3 11.5 C 0 km/h
134 30-05-2009 02:48:03 11.5 C 6.09 g/m*3 11.5 C 0 km/h
135 30-05-2009 03:00:03 11.4 C 5.95 g/m*3 11.4 C 0 km/h
136 30-05-2009 03:12:03 11.4 C 5.75 g/m*3 11.4 C 0 km/h
137 30-05-2009 03:24:04 11.5 C 5.68 g/m*3 11.5 C 0 km/h
138 30-05-2009 03:36:04 11.4 C 5.75 g/m*3 11.4 C 0 km/h
139 30-05-2009 03:48:04 11.3 C 5.71 g/m*3 11.3 C 0 km/h
140 30-05-2009 04:00:04 11.1 C 5.74 g/m*3 11.1 C 0 km/h
141 30-05-2009 04:12:04 11 C 5.91 g/m*3 11 C 0 km/h
142 30-05-2009 04:24:04 10.8 C 5.93 g/m*3 10.8 C 0 km/h
143 30-05-2009 04:36:04 10.8 C 5.93 g/m*3 10.8 C 0 km/h
144 30-05-2009 04:48:04 10.7 C 5.89 g/m*3 10.7 C 0 km/h
145 30-05-2009 05:00:04 10.6 C 5.95 g/m*3 10.6 C 0 km/h
146 30-05-2009 05:12:04 10.4 C 5.88 g/m*3 10.4 C 0 km/h
147 30-05-2009 05:24:04 10.2 C 6.19 g/m*3 10.2 C 0 km/h
148 30-05-2009 05:36:04 10.1 C 6.34 g/m*3 10.1 C 0 km/h
149 30-05-2009 05:48:04 10 C 6.58 g/m*3 10 C 0 km/h
150 30-05-2009 06:00:04 9.9 C 6.54 g/m*3 9.9 C 0 km/h
Sensor: Nr:Datum:Temp:Abs-Feuchte:Windchill:Wind:
Aussen-T/F 151 30-05-2009 06:12:04 9.9 C 6.54 g/m*3 9.9 C 0 km/h
152 30-05-2009 06:24:04 9.9 C 6.54 g/m*3 9.9 C 0 km/h
153 30-05-2009 06:36:04 9.9 C 6.72 g/m*3 9.9 C 0 km/h
154 30-05-2009 06:48:04 10 C 6.67 g/m*3 10 C 0 km/h
155 30-05-2009 07:00:04 10.1 C 6.71 g/m*3 10.1 C 0 km/h
156 30-05-2009 07:12:04 10.3 C 6.9 g/m*3 10.3 C 0 km/h
157 30-05-2009 07:24:05 10.5 C 6.89 g/m*3 10.5 C 0 km/h
158 30-05-2009 07:36:02 10.8 C 6.92 g/m*3 10.8 C 0 km/h
159 30-05-2009 07:48:02 11.1 C 6.95 g/m*3 11.1 C 0 km/h
160 30-05-2009 08:00:02 11.4 C 6.98 g/m*3 11.4 C 0 km/h
161 30-05-2009 08:12:01 11.7 C 6.9 g/m*3 11.7 C 0 km/h
162 30-05-2009 08:24:02 12.3 C 6.84 g/m*3 12.3 C 0 km/h
163 30-05-2009 08:36:02 12.7 C 6.68 g/m*3 12.7 C 0 km/h
164 30-05-2009 08:48:01 13.4 C 6.51 g/m*3 13.4 C 0 km/h
165 30-05-2009 09:00:01 13.8 C 6.31 g/m*3 13.8 C 0 km/h
166 30-05-2009 09:12:02 14.2 C 6.35 g/m*3 14.2 C 0 km/h
167 30-05-2009 09:24:01 14.8 C 6.33 g/m*3 14.8 C 0 km/h
168 30-05-2009 09:36:01 15.3 C 6.4 g/m*3 15.3 C 0 km/h
169 30-05-2009 09:48:01 15.9 C 6.37 g/m*3 15.9 C 0 km/h
170 30-05-2009 10:00:01 16.5 C 6.32 g/m*3 16.5 C 0 km/h
171 30-05-2009 10:12:01 16.9 C 6.04 g/m*3 16.9 C 0 km/h
172 30-05-2009 10:24:00 17.6 C 6.15 g/m*3 17.6 C 0 km/h
173 30-05-2009 10:36:00 18.2 C 6.22 g/m*3 18.2 C 0 km/h
174 30-05-2009 10:48:00 18.9 C 6.48 g/m*3 18.9 C 0 km/h
175 30-05-2009 11:00:00 19.6 C 6.25 g/m*3 19.6 C 0 km/h
Sensor: Nr:Datum:Temp:Abs-Feuchte:Windchill:Wind:
Aussen-T/F 176 30-05-2009 11:12:00 19.6 C 6.25 g/m*3 19.6 C 0 km/h
177 30-05-2009 11:24:00 19.9 C 6.19 g/m*3 19.9 C 0 km/h
178 30-05-2009 11:36:00 20.6 C 6.26 g/m*3 20.6 C 0 km/h
179 30-05-2009 11:48:00 21.2 C 5.93 g/m*3 21.2 C 0 km/h
180 30-05-2009 12:00:00 21.4 C 5.44 g/m*3 21.4 C 0 km/h
181 30-05-2009 12:12:59 23 C 5.34 g/m*3 23 C 0 km/h
182 30-05-2009 12:24:00 21.6 C 5.5 g/m*3 21.6 C 0 km/h
183 30-05-2009 12:36:00 22.1 C 5.08 g/m*3 22.1 C 0 km/h
184 30-05-2009 12:48:59 22 C 5.05 g/m*3 22 C 0 km/h
185 30-05-2009 13:00:59 21.5 C 5.09 g/m*3 21.5 C 0 km/h
186 30-05-2009 13:11:59 24.3 C 5.09 g/m*3 24.3 C 0 km/h
187 30-05-2009 13:24:59 26.5 C 5.01 g/m*3 26.5 C 0 km/h
188 30-05-2009 13:36:59 26.6 C 5.03 g/m*3 26.6 C 0 km/h
189 30-05-2009 13:48:58 25.8 C 4.82 g/m*3 25.8 C 0 km/h
190 30-05-2009 14:00:59 24.9 C 4.58 g/m*3 24.9 C 0 km/h
191 30-05-2009 14:13:00 23.2 C 4.16 g/m*3 23.2 C 0 km/h
192 30-05-2009 14:24:58 22.7 C 4.65 g/m*3 22.7 C 0 km/h
193 30-05-2009 14:36:58 24.1 C 4.38 g/m*3 24.1 C 0 km/h
194 30-05-2009 14:48:58 25.7 C 4.79 g/m*3 25.7 C 0 km/h
195 30-05-2009 15:00:58 25.4 C 4.71 g/m*3 25.4 C 0 km/h
196 30-05-2009 15:12:58 25.1 C 4.63 g/m*3 25.1 C 0 km/h
197 30-05-2009 15:24:58 25.7 C 4.79 g/m*3 25.7 C 0 km/h
198 30-05-2009 15:36:57 26.6 C 5.03 g/m*3 26.6 C 0 km/h
199 30-05-2009 15:48:58 25.3 C 4.68 g/m*3 25.3 C 0 km/h
200 30-05-2009 16:00:57 26 C 4.87 g/m*3 26 C 0 km/h
Sensor: Nr:Datum:Temp:Abs-Feuchte:Windchill:Wind:
Aussen-T/F 201 30-05-2009 16:12:57 27.5 C 5.29 g/m*3 27.5 C 0 km/h
202 30-05-2009 16:24:57 28.2 C 5.5 g/m*3 28.2 C 0 km/h
203 30-05-2009 16:36:58 28.2 C 5.5 g/m*3 28.2 C 0 km/h
204 30-05-2009 16:48:57 29.1 C 5.78 g/m*3 29.1 C 0 km/h
205 30-05-2009 17:00:57 28.6 C 5.62 g/m*3 28.6 C 0 km/h
206 30-05-2009 17:12:57 28.3 C 5.53 g/m*3 28.3 C 0 km/h
207 30-05-2009 17:24:57 26.9 C 5.12 g/m*3 26.9 C 0 km/h
208 30-05-2009 17:36:57 25.1 C 4.63 g/m*3 25.1 C 0 km/h
209 30-05-2009 17:48:56 27.9 C 5.41 g/m*3 27.9 C 0 km/h
210 30-05-2009 18:00:56 28.6 C 5.62 g/m*3 28.6 C 0 km/h
211 30-05-2009 18:12:57 29.4 C 5.87 g/m*3 29.4 C 0 km/h
212 30-05-2009 18:24:56 26.6 C 5.03 g/m*3 26.6 C 0 km/h
213 30-05-2009 18:36:56 25.2 C 4.66 g/m*3 25.2 C 0 km/h
214 30-05-2009 18:48:55 25.7 C 4.79 g/m*3 25.7 C 0 km/h
215 30-05-2009 19:00:56 26.9 C 5.12 g/m*3 26.9 C 0 km/h
216 30-05-2009 19:12:56 27.2 C 5.2 g/m*3 27.2 C 0 km/h
217 30-05-2009 19:24:56 27.1 C 5.18 g/m*3 27.1 C 0 km/h
218 30-05-2009 19:36:55 26.8 C 5.09 g/m*3 26.8 C 0 km/h
219 30-05-2009 19:48:56 26.1 C 4.9 g/m*3 26.1 C 0 km/h
220 30-05-2009 20:00:55 25.5 C 4.73 g/m*3 25.5 C 0 km/h
221 30-05-2009 20:12:55 25.1 C 4.86 g/m*3 25.1 C 0 km/h
222 30-05-2009 20:24:55 24.5 C 4.92 g/m*3 24.5 C 0 km/h
223 30-05-2009 20:36:55 23.6 C 5.32 g/m*3 23.6 C 0 km/h
224 30-05-2009 20:48:55 22.6 C 5.42 g/m*3 22.6 C 0 km/h
225 30-05-2009 21:00:55 21.6 C 5.88 g/m*3 21.6 C 0 km/h
Sensor: Nr:Datum:Temp:Abs-Feuchte:Windchill:Wind:
Aussen-T/F 226 30-05-2009 21:12:56 20.9 C 6.19 g/m*3 20.9 C 0 km/h
227 30-05-2009 21:24:54 20.4 C 6.19 g/m*3 20.4 C 0 km/h
228 30-05-2009 21:36:54 19.7 C 6.28 g/m*3 19.7 C 0 km/h
229 30-05-2009 21:48:54 19.6 C 6.58 g/m*3 19.6 C 0 km/h
230 30-05-2009 22:00:54 18.9 C 6.48 g/m*3 18.9 C 0 km/h
231 30-05-2009 22:12:54 18.7 C 6.72 g/m*3 18.7 C 0 km/h
232 30-05-2009 22:24:54 18.2 C 6.53 g/m*3 18.2 C 0 km/h
233 30-05-2009 22:36:54 17.8 C 6.68 g/m*3 17.8 C 0 km/h
234 30-05-2009 22:48:54 17.5 C 6.71 g/m*3 17.5 C 0 km/h
235 30-05-2009 23:01:54 17.5 C 6.86 g/m*3 17.5 C 0 km/h
236 30-05-2009 23:13:54 17.3 C 6.78 g/m*3 17.3 C 0 km/h
237 30-05-2009 23:25:54 17.2 C 6.88 g/m*3 17.2 C 0 km/h
238 30-05-2009 23:37:54 17 C 6.95 g/m*3 17 C 0 km/h
239 30-05-2009 23:49:54 17 C 6.95 g/m*3 17 C 0 km/h
240 31-05-2009 00:01:54 16.6 C 6.92 g/m*3 16.6 C 0 km/h
241 31-05-2009 00:13:54 16.4 C 7.12 g/m*3 16.4 C 0 km/h
242 31-05-2009 00:25:54 16.3 C 7.21 g/m*3 16.3 C 0 km/h
243 31-05-2009 00:37:54 16.6 C 7.35 g/m*3 16.6 C 0 km/h
244 31-05-2009 00:49:55 16.7 C 7.39 g/m*3 16.7 C 0 km/h
245 31-05-2009 01:01:55 16.7 C 7.39 g/m*3 16.7 C 0 km/h
246 31-05-2009 01:13:55 16.4 C 7.4 g/m*3 16.4 C 0 km/h
247 31-05-2009 01:25:55 16 C 7.36 g/m*3 16 C 0 km/h
248 31-05-2009 01:37:55 15.5 C 7.4 g/m*3 15.5 C 0 km/h
249 31-05-2009 01:49:55 15.6 C 7.71 g/m*3 15.6 C 0 km/h
250 31-05-2009 02:01:55 15.8 C 7.67 g/m*3 15.8 C 0 km/h
Sensor: Nr:Datum:Temp:Abs-Feuchte:Windchill:Wind:
Aussen-T/F 251 31-05-2009 02:13:55 15.8 C 7.67 g/m*3 15.8 C 0 km/h
252 31-05-2009 02:25:55 15.7 C 7.76 g/m*3 15.7 C 0 km/h
253 31-05-2009 02:37:55 15.9 C 7.85 g/m*3 15.9 C 0 km/h
254 31-05-2009 02:49:55 15.9 C 7.85 g/m*3 15.9 C 0 km/h
255 31-05-2009 03:01:55 15.8 C 7.81 g/m*3 15.8 C 0 km/h
256 31-05-2009 03:13:55 15.9 C 7.72 g/m*3 15.9 C 0 km/h
257 31-05-2009 03:25:55 15.6 C 7.71 g/m*3 15.6 C 0 km/h
258 31-05-2009 03:37:55 15.5 C 7.8 g/m*3 15.5 C 0 km/h
259 31-05-2009 03:49:55 15.5 C 7.8 g/m*3 15.5 C 0 km/h
260 31-05-2009 04:01:55 15.6 C 7.98 g/m*3 15.6 C 0 km/h
261 31-05-2009 04:13:55 15.5 C 7.93 g/m*3 15.5 C 0 km/h
262 31-05-2009 04:25:55 15.2 C 7.92 g/m*3 15.2 C 0 km/h
263 31-05-2009 04:37:56 15.4 C 8.01 g/m*3 15.4 C 0 km/h
264 31-05-2009 04:49:56 15.5 C 8.06 g/m*3 15.5 C 0 km/h
265 31-05-2009 05:01:56 15.5 C 8.06 g/m*3 15.5 C 0 km/h
266 31-05-2009 05:13:56 15.4 C 8.01 g/m*3 15.4 C 0 km/h
267 31-05-2009 05:25:56 15.4 C 8.01 g/m*3 15.4 C 0 km/h
268 31-05-2009 05:37:56 15.4 C 8.01 g/m*3 15.4 C 0 km/h
269 31-05-2009 05:49:56 15.4 C 8.15 g/m*3 15.4 C 0 km/h
270 31-05-2009 06:01:56 15.3 C 8.1 g/m*3 15.3 C 0 km/h
271 31-05-2009 06:13:56 15.4 C 8.28 g/m*3 15.4 C 0 km/h
272 31-05-2009 06:25:56 15.6 C 8.38 g/m*3 15.6 C 0 km/h
273 31-05-2009 06:37:56 15.8 C 8.35 g/m*3 15.8 C 0 km/h
274 31-05-2009 06:49:56 15.9 C 8.4 g/m*3 15.9 C 0 km/h
275 31-05-2009 07:01:56 16 C 8.31 g/m*3 16 C 0 km/h
Sensor: Nr:Datum:Temp:Abs-Feuchte:Windchill:Wind:
Aussen-T/F 276 31-05-2009 07:13:56 15.9 C 8.26 g/m*3 15.9 C 0 km/h
277 31-05-2009 07:25:56 16 C 8.31 g/m*3 16 C 0 km/h
278 31-05-2009 07:37:56 16 C 8.58 g/m*3 16 C 0 km/h
279 31-05-2009 07:49:56 16 C 8.58 g/m*3 16 C 0 km/h
280 31-05-2009 08:01:54 15.9 C 8.67 g/m*3 15.9 C 0 km/h
281 31-05-2009 08:13:54 16.2 C 8.83 g/m*3 16.2 C 0 km/h
282 31-05-2009 08:25:54 16.7 C 8.95 g/m*3 16.7 C 0 km/h
283 31-05-2009 08:37:53 17.5 C 8.8 g/m*3 17.5 C 0 km/h
284 31-05-2009 08:49:54 17.6 C 8.7 g/m*3 17.6 C 0 km/h
285 31-05-2009 09:01:53 17.7 C 8.75 g/m*3 17.7 C 0 km/h
286 31-05-2009 09:13:53 18.3 C 8.6 g/m*3 18.3 C 0 km/h
287 31-05-2009 09:25:53 18.6 C 8.59 g/m*3 18.6 C 0 km/h
288 31-05-2009 09:37:54 18.9 C 8.59 g/m*3 18.9 C 0 km/h
289 31-05-2009 09:49:53 18.9 C 8.26 g/m*3 18.9 C 0 km/h
290 31-05-2009 10:01:53 19.3 C 8.29 g/m*3 19.3 C 0 km/h
291 31-05-2009 10:13:53 20.1 C 8.34 g/m*3 20.1 C 0 km/h
292 31-05-2009 10:25:53 20.4 C 7.96 g/m*3 20.4 C 0 km/h
293 31-05-2009 10:37:53 20.5 C 8.01 g/m*3 20.5 C 0 km/h
294 31-05-2009 10:49:52 20.5 C 8.19 g/m*3 20.5 C 0 km/h
295 31-05-2009 11:01:53 20.9 C 8.01 g/m*3 20.9 C 0 km/h
296 31-05-2009 11:13:54 21.2 C 7.78 g/m*3 21.2 C 0 km/h
297 31-05-2009 11:25:52 21.4 C 7.5 g/m*3 21.4 C 0 km/h
298 31-05-2009 11:37:52 21.9 C 7.53 g/m*3 21.9 C 0 km/h
299 31-05-2009 11:49:51 22.4 C 7.35 g/m*3 22.4 C 0 km/h
300 31-05-2009 12:01:52 23.3 C 7.11 g/m*3 23.3 C 0 km/h
Sensor: Nr:Datum:Temp:Abs-Feuchte:Windchill:Wind:
Aussen-T/F 301 31-05-2009 12:13:52 23.9 C 7.14 g/m*3 23.9 C 0 km/h
302 31-05-2009 12:25:52 23 C 6.78 g/m*3 23 C 0 km/h
303 31-05-2009 12:37:51 22.7 C 7.07 g/m*3 22.7 C 0 km/h
304 31-05-2009 12:49:52 22.2 C 7.07 g/m*3 22.2 C 0 km/h
305 31-05-2009 13:01:51 23.1 C 6.82 g/m*3 23.1 C 0 km/h
306 31-05-2009 13:13:51 25.6 C 6.43 g/m*3 25.6 C 0 km/h
307 31-05-2009 13:25:51 26.1 C 5.39 g/m*3 26.1 C 0 km/h
308 31-05-2009 13:37:51 23.5 C 6.13 g/m*3 23.5 C 0 km/h
309 31-05-2009 13:49:51 23.1 C 5.99 g/m*3 23.1 C 0 km/h
310 31-05-2009 14:01:51 24.5 C 6.49 g/m*3 24.5 C 0 km/h
311 31-05-2009 14:13:51 25 C 6.22 g/m*3 25 C 0 km/h
312 31-05-2009 14:25:50 25.4 C 5.89 g/m*3 25.4 C 0 km/h
313 31-05-2009 14:37:51 25.7 C 5.99 g/m*3 25.7 C 0 km/h
314 31-05-2009 14:49:50 25.6 C 5.95 g/m*3 25.6 C 0 km/h
315 31-05-2009 15:01:50 25.8 C 5.3 g/m*3 25.8 C 0 km/h
316 31-05-2009 15:13:50 26.3 C 5.2 g/m*3 26.3 C 0 km/h
317 31-05-2009 15:25:50 25.6 C 5 g/m*3 25.6 C 0 km/h
318 31-05-2009 15:37:50 26.7 C 5.32 g/m*3 26.7 C 0 km/h
319 31-05-2009 15:49:49 27.4 C 5.26 g/m*3 27.4 C 0 km/h
320 31-05-2009 16:01:50 27.1 C 5.18 g/m*3 27.1 C 0 km/h
321 31-05-2009 16:13:50 27.1 C 5.18 g/m*3 27.1 C 0 km/h
322 31-05-2009 16:25:50 28.1 C 5.47 g/m*3 28.1 C 0 km/h
323 31-05-2009 16:37:49 27.1 C 5.18 g/m*3 27.1 C 0 km/h
324 31-05-2009 16:49:50 27 C 5.15 g/m*3 27 C 0 km/h
325 31-05-2009 17:01:49 25.4 C 5.41 g/m*3 25.4 C 0 km/h
Sensor: Nr:Datum:Temp:Abs-Feuchte:Windchill:Wind:
Aussen-T/F 326 31-05-2009 17:13:49 25.5 C 5.21 g/m*3 25.5 C 0 km/h
327 31-05-2009 17:25:49 25.8 C 5.3 g/m*3 25.8 C 0 km/h
328 31-05-2009 17:37:48 25.8 C 5.54 g/m*3 25.8 C 0 km/h
329 31-05-2009 17:49:49 25.5 C 5.21 g/m*3 25.5 C 0 km/h
330 31-05-2009 18:01:48 24.8 C 5.46 g/m*3 24.8 C 0 km/h
331 31-05-2009 18:13:48 27.5 C 5.29 g/m*3 27.5 C 0 km/h
332 31-05-2009 18:25:48 25.6 C 5.24 g/m*3 25.6 C 0 km/h
333 31-05-2009 18:37:49 25.7 C 5.75 g/m*3 25.7 C 0 km/h
334 31-05-2009 18:49:48 27 C 5.4 g/m*3 27 C 0 km/h
335 31-05-2009 19:01:48 27.5 C 5.56 g/m*3 27.5 C 0 km/h
336 31-05-2009 19:13:48 27.5 C 5.56 g/m*3 27.5 C 0 km/h
337 31-05-2009 19:25:48 27.6 C 5.59 g/m*3 27.6 C 0 km/h
338 31-05-2009 19:37:47 26.8 C 5.6 g/m*3 26.8 C 0 km/h
339 31-05-2009 19:49:48 25.6 C 5.95 g/m*3 25.6 C 0 km/h
340 31-05-2009 20:01:47 24.1 C 5.69 g/m*3 24.1 C 0 km/h
341 31-05-2009 20:13:47 24.1 C 5.91 g/m*3 24.1 C 0 km/h
342 31-05-2009 20:25:48 23.3 C 6.06 g/m*3 23.3 C 0 km/h
343 31-05-2009 20:37:47 22.9 C 6.34 g/m*3 22.9 C 0 km/h
344 31-05-2009 20:49:47 22.2 C 6.48 g/m*3 22.2 C 0 km/h
345 31-05-2009 21:01:47 21.4 C 6.75 g/m*3 21.4 C 0 km/h
346 31-05-2009 21:13:47 20.8 C 6.88 g/m*3 20.8 C 0 km/h
347 31-05-2009 21:25:47 20 C 6.57 g/m*3 20 C 0 km/h
348 31-05-2009 21:37:46 19.6 C 6.75 g/m*3 19.6 C 0 km/h
349 31-05-2009 21:49:47 19.2 C 6.76 g/m*3 19.2 C 0 km/h
350 31-05-2009 22:01:46 18.9 C 6.97 g/m*3 18.9 C 0 km/h
Sensor: Nr:Datum:Temp:Abs-Feuchte:Windchill:Wind:
Aussen-T/F 351 31-05-2009 22:13:46 18.6 C 7 g/m*3 18.6 C 0 km/h
352 31-05-2009 22:25:46 18.4 C 7.08 g/m*3 18.4 C 0 km/h
353 31-05-2009 22:37:46 18 C 7.07 g/m*3 18 C 0 km/h
354 31-05-2009 22:49:01 17.8 C 7.29 g/m*3 17.8 C 0 km/h
355 31-05-2009 23:01:01 17.7 C 7.24 g/m*3 17.7 C 0 km/h
356 31-05-2009 23:13:01 17.4 C 7.26 g/m*3 17.4 C 0 km/h
357 31-05-2009 23:25:01 17.2 C 7.32 g/m*3 17.2 C 0 km/h
358 31-05-2009 23:37:01 16.9 C 7.34 g/m*3 16.9 C 0 km/h
359 31-05-2009 23:49:00 16.6 C 7.35 g/m*3 16.6 C 0 km/h
360 01-06-2009 00:01:00 16.6 C 7.49 g/m*3 16.6 C 0 km/h
361 01-06-2009 00:13:00 16.3 C 7.49 g/m*3 16.3 C 0 km/h
362 01-06-2009 00:26:01 16.1 C 7.54 g/m*3 16.1 C 0 km/h
363 01-06-2009 00:38:01 15.9 C 7.85 g/m*3 15.9 C 0 km/h
364 01-06-2009 00:50:01 15.6 C 7.85 g/m*3 15.6 C 0 km/h
365 01-06-2009 01:02:01 15.6 C 7.98 g/m*3 15.6 C 0 km/h
366 01-06-2009 01:14:01 15.2 C 7.92 g/m*3 15.2 C 0 km/h
367 01-06-2009 01:26:01 14.9 C 7.9 g/m*3 14.9 C 0 km/h
368 01-06-2009 01:38:01 14.8 C 8.11 g/m*3 14.8 C 0 km/h
369 01-06-2009 01:50:01 14.6 C 8.01 g/m*3 14.6 C 0 km/h
370 01-06-2009 02:02:01 14.5 C 7.96 g/m*3 14.5 C 0 km/h
371 01-06-2009 02:14:01 14.3 C 8.11 g/m*3 14.3 C 0 km/h
372 01-06-2009 02:26:01 14.1 C 8.13 g/m*3 14.1 C 0 km/h
373 01-06-2009 02:38:01 13.7 C 8.05 g/m*3 13.7 C 0 km/h
374 01-06-2009 02:50:01 13.8 C 8.22 g/m*3 13.8 C 0 km/h
375 01-06-2009 03:02:01 13.6 C 8.24 g/m*3 13.6 C 0 km/h
Sensor: Nr:Datum:Temp:Abs-Feuchte:Windchill:Wind:
Aussen-T/F 376 01-06-2009 03:14:01 13.4 C 8.25 g/m*3 13.4 C 0 km/h
377 01-06-2009 03:26:01 13.3 C 8.2 g/m*3 13.3 C 0 km/h
378 01-06-2009 03:38:01 13.1 C 8.22 g/m*3 13.1 C 0 km/h
379 01-06-2009 03:50:01 13 C 8.28 g/m*3 13 C 0 km/h
380 01-06-2009 04:02:01 12.9 C 8.34 g/m*3 12.9 C 0 km/h
381 01-06-2009 04:14:02 12.8 C 8.4 g/m*3 12.8 C 0 km/h
382 01-06-2009 04:26:02 12.6 C 8.3 g/m*3 12.6 C 0 km/h
383 01-06-2009 04:38:02 12.5 C 8.36 g/m*3 12.5 C 0 km/h
384 01-06-2009 04:50:02 12.4 C 8.3 g/m*3 12.4 C 0 km/h
385 01-06-2009 05:02:02 12.2 C 8.2 g/m*3 12.2 C 0 km/h
386 01-06-2009 05:14:02 12.3 C 8.25 g/m*3 12.3 C 0 km/h
387 01-06-2009 05:26:02 12.4 C 8.41 g/m*3 12.4 C 0 km/h
388 01-06-2009 05:38:02 12.6 C 8.52 g/m*3 12.6 C 0 km/h
389 01-06-2009 05:50:02 12.8 C 8.51 g/m*3 12.8 C 0 km/h
390 01-06-2009 06:02:02 12.8 C 8.51 g/m*3 12.8 C 0 km/h
391 01-06-2009 06:14:02 13 C 8.39 g/m*3 13 C 0 km/h
392 01-06-2009 06:26:02 13.2 C 8.5 g/m*3 13.2 C 0 km/h
393 01-06-2009 06:38:02 13.2 C 8.38 g/m*3 13.2 C 0 km/h
394 01-06-2009 06:50:02 13.5 C 8.54 g/m*3 13.5 C 0 km/h
395 01-06-2009 07:02:02 13.5 C 8.54 g/m*3 13.5 C 0 km/h
396 01-06-2009 07:14:02 13.6 C 8.59 g/m*3 13.6 C 0 km/h
397 01-06-2009 07:26:02 13.8 C 8.7 g/m*3 13.8 C 0 km/h
398 01-06-2009 07:38:02 14.3 C 8.72 g/m*3 14.3 C 0 km/h
399 01-06-2009 07:50:02 14.4 C 8.65 g/m*3 14.4 C 0 km/h
400 01-06-2009 08:02:03 14.3 C 8.72 g/m*3 14.3 C 0 km/h
Sensor: Nr:Datum:Temp:Abs-Feuchte:Windchill:Wind:
Aussen-T/F 401 01-06-2009 08:14:03 14.5 C 8.83 g/m*3 14.5 C 0 km/h
402 01-06-2009 08:26:03 15.1 C 8.9 g/m*3 15.1 C 0 km/h
403 01-06-2009 08:38:01 15.9 C 8.94 g/m*3 15.9 C 0 km/h
404 01-06-2009 08:50:01 16.9 C 8.92 g/m*3 16.9 C 0 km/h
405 01-06-2009 09:02:00 17.1 C 8.73 g/m*3 17.1 C 0 km/h
406 01-06-2009 09:14:00 17.6 C 9 g/m*3 17.6 C 0 km/h
407 01-06-2009 09:26:01 18.2 C 8.7 g/m*3 18.2 C 0 km/h
408 01-06-2009 09:38:01 18.3 C 8.76 g/m*3 18.3 C 0 km/h
409 01-06-2009 09:50:00 18.7 C 8.81 g/m*3 18.7 C 0 km/h
410 01-06-2009 10:02:01 19.6 C 8.78 g/m*3 19.6 C 0 km/h
411 01-06-2009 10:14:01 20.1 C 8.52 g/m*3 20.1 C 0 km/h
412 01-06-2009 10:26:00 20.8 C 8.87 g/m*3 20.8 C 0 km/h
413 01-06-2009 10:38:00 21.7 C 9.16 g/m*3 21.7 C 0 km/h
414 01-06-2009 10:50:00 22.1 C 8.39 g/m*3 22.1 C 0 km/h
415 01-06-2009 11:14:00 22.5 C 8.39 g/m*3 22.5 C 0 km/h
416 01-06-2009 11:14:00 22.8 C 8.53 g/m*3 22.8 C 0 km/h
417 01-06-2009 11:14:00 22.5 C 8.39 g/m*3 22.5 C 0 km/h
418 01-06-2009 11:14:00 22.8 C 8.53 g/m*3 22.8 C 0 km/h
419 01-06-2009 11:26:00 22.6 C 8.44 g/m*3 22.6 C 0 km/h
420 01-06-2009 11:37:59 23.3 C 8.15 g/m*3 23.3 C 0 km/h
421 01-06-2009 11:50:59 24.5 C 8.06 g/m*3 24.5 C 0 km/h
422 01-06-2009 12:02:59 24.5 C 7.83 g/m*3 24.5 C 0 km/h
423 01-06-2009 12:14:58 25.7 C 7.42 g/m*3 25.7 C 0 km/h
424 01-06-2009 12:26:58 26.5 C 7.76 g/m*3 26.5 C 0 km/h
425 01-06-2009 12:38:59 26.8 C 7.38 g/m*3 26.8 C 0 km/h
Sensor: Nr:Datum:Temp:Abs-Feuchte:Windchill:Wind:
Aussen-T/F 426 01-06-2009 12:50:58 26.2 C 7.39 g/m*3 26.2 C 0 km/h
427 01-06-2009 13:02:58 25.4 C 8.24 g/m*3 25.4 C 0 km/h
428 01-06-2009 13:14:59 24.8 C 8.65 g/m*3 24.8 C 0 km/h
429 01-06-2009 13:26:59 25.6 C 8.09 g/m*3 25.6 C 0 km/h
430 01-06-2009 13:38:58 25.7 C 8.38 g/m*3 25.7 C 0 km/h
431 01-06-2009 13:50:58 24.4 C 8.46 g/m*3 24.4 C 0 km/h
432 01-06-2009 14:02:58 19.6 C 9.12 g/m*3 19.6 C 0 km/h
433 01-06-2009 14:14:58 19 C 11.73 g/m*3 19 C 0 km/h
434 01-06-2009 14:26:59 20.1 C 12.69 g/m*3 20.1 C 0 km/h
435 01-06-2009 14:38:57 22.4 C 11.12 g/m*3 22.4 C 0 km/h
436 01-06-2009 14:50:57 22.7 C 11.11 g/m*3 22.7 C 0 km/h
437 01-06-2009 15:02:57 22.1 C 12.1 g/m*3 22.1 C 0 km/h
438 01-06-2009 15:14:57 22.6 C 12.25 g/m*3 22.6 C 0 km/h
439 01-06-2009 15:26:57 23.7 C 11.55 g/m*3 23.7 C 0 km/h
440 01-06-2009 15:38:57 23.6 C 11.91 g/m*3 23.6 C 0 km/h
441 01-06-2009 15:50:57 24.6 C 11.25 g/m*3 24.6 C 0 km/h
442 01-06-2009 16:02:57 25.9 C 9.44 g/m*3 25.9 C 0 km/h
443 01-06-2009 16:14:56 26.9 C 8.7 g/m*3 26.9 C 0 km/h
444 01-06-2009 16:26:56 28.8 C 7.39 g/m*3 28.8 C 0 km/h
445 01-06-2009 16:38:56 29.4 C 6.75 g/m*3 29.4 C 0 km/h
446 01-06-2009 16:50:56 25.6 C 6.9 g/m*3 25.6 C 0 km/h
447 01-06-2009 17:02:56 21.6 C 11.57 g/m*3 21.6 C 0 km/h
448 01-06-2009 17:14:56 22.4 C 11.72 g/m*3 22.4 C 0 km/h
449 01-06-2009 17:26:56 23.3 C 11.5 g/m*3 23.3 C 0 km/h
450 01-06-2009 17:38:56 24.3 C 10.4 g/m*3 24.3 C 0 km/h
Sensor: Nr:Datum:Temp:Abs-Feuchte:Windchill:Wind:
Aussen-T/F 451 01-06-2009 17:50:56 24.7 C 9.96 g/m*3 24.7 C 0 km/h
452 01-06-2009 18:02:55 24.7 C 9.51 g/m*3 24.7 C 0 km/h
453 01-06-2009 18:14:56 25.4 C 8.95 g/m*3 25.4 C 0 km/h
454 01-06-2009 18:26:57 25.9 C 9.44 g/m*3 25.9 C 0 km/h
455 01-06-2009 18:38:55 28 C 8.16 g/m*3 28 C 0 km/h
456 01-06-2009 18:50:55 27.4 C 8.95 g/m*3 27.4 C 0 km/h
457 01-06-2009 19:02:54 25.6 C 8.81 g/m*3 25.6 C 0 km/h
458 01-06-2009 19:14:55 23.7 C 8.34 g/m*3 23.7 C 0 km/h
459 01-06-2009 19:26:55 24.2 C 8.14 g/m*3 24.2 C 0 km/h
460 01-06-2009 19:38:55 25.3 C 8.19 g/m*3 25.3 C 0 km/h
461 01-06-2009 19:50:54 25.3 C 7.73 g/m*3 25.3 C 0 km/h
462 01-06-2009 20:02:55 25.2 C 7.68 g/m*3 25.2 C 0 km/h
463 01-06-2009 20:14:54 24.9 C 7.78 g/m*3 24.9 C 0 km/h
464 01-06-2009 20:26:54 24.5 C 7.61 g/m*3 24.5 C 0 km/h
465 01-06-2009 20:38:54 23.7 C 7.49 g/m*3 23.7 C 0 km/h
466 01-06-2009 20:50:54 22.6 C 7.83 g/m*3 22.6 C 0 km/h
467 01-06-2009 21:02:53 22.1 C 8.59 g/m*3 22.1 C 0 km/h
468 01-06-2009 21:14:54 21.1 C 8.48 g/m*3 21.1 C 0 km/h
469 01-06-2009 21:26:54 20.3 C 8.62 g/m*3 20.3 C 0 km/h
470 01-06-2009 21:38:54 19.7 C 8.49 g/m*3 19.7 C 0 km/h
471 01-06-2009 21:50:53 19.3 C 8.63 g/m*3 19.3 C 0 km/h
472 01-06-2009 22:02:54 19 C 8.64 g/m*3 19 C 0 km/h
473 01-06-2009 22:14:53 18.6 C 8.91 g/m*3 18.6 C 0 km/h
474 01-06-2009 22:26:53 18.4 C 8.81 g/m*3 18.4 C 0 km/h
475 01-06-2009 22:39:09 18.1 C 8.96 g/m*3 18.1 C 0 km/h
Sensor: Nr:Datum:Temp:Abs-Feuchte:Windchill:Wind:
Aussen-T/F 476 01-06-2009 22:51:09 17.8 C 9.11 g/m*3 17.8 C 0 km/h
477 01-06-2009 23:03:09 17.4 C 8.89 g/m*3 17.4 C 0 km/h
478 01-06-2009 23:15:09 17.2 C 8.93 g/m*3 17.2 C 0 km/h
479 01-06-2009 23:27:09 17 C 9.12 g/m*3 17 C 0 km/h
480 01-06-2009 23:39:09 16.9 C 9.21 g/m*3 16.9 C 0 km/h
481 01-06-2009 23:51:09 16.6 C 9.18 g/m*3 16.6 C 0 km/h
482 02-06-2009 00:03:09 16.4 C 9.21 g/m*3 16.4 C 0 km/h
483 02-06-2009 00:15:09 16.1 C 9.18 g/m*3 16.1 C 0 km/h
484 02-06-2009 00:27:09 16 C 9.26 g/m*3 16 C 0 km/h
485 02-06-2009 00:39:09 15.8 C 9.56 g/m*3 15.8 C 0 km/h
486 02-06-2009 00:51:09 15.5 C 9.65 g/m*3 15.5 C 0 km/h
487 02-06-2009 01:03:09 15.3 C 9.66 g/m*3 15.3 C 0 km/h
488 02-06-2009 01:15:09 15 C 9.62 g/m*3 15 C 0 km/h
489 02-06-2009 01:27:10 14.9 C 9.69 g/m*3 14.9 C 0 km/h
490 02-06-2009 01:39:10 14.7 C 9.82 g/m*3 14.7 C 0 km/h
491 02-06-2009 01:51:10 14.6 C 9.76 g/m*3 14.6 C 0 km/h
492 02-06-2009 02:03:10 14.4 C 9.64 g/m*3 14.4 C 0 km/h
493 02-06-2009 02:15:10 14.1 C 9.59 g/m*3 14.1 C 0 km/h
494 02-06-2009 02:27:10 14 C 9.65 g/m*3 14 C 0 km/h
495 02-06-2009 02:39:10 13.7 C 9.59 g/m*3 13.7 C 0 km/h
496 02-06-2009 02:51:10 13.7 C 9.59 g/m*3 13.7 C 0 km/h
497 02-06-2009 03:03:10 13.7 C 9.59 g/m*3 13.7 C 0 km/h
498 02-06-2009 03:15:10 13.5 C 9.59 g/m*3 13.5 C 0 km/h
499 02-06-2009 03:27:10 13.4 C 9.53 g/m*3 13.4 C 0 km/h
500 02-06-2009 03:39:10 13.4 C 9.53 g/m*3 13.4 C 0 km/h
Sensor: Nr:Datum:Temp:Abs-Feuchte:Windchill:Wind:
Aussen-T/F 501 02-06-2009 03:51:10 13.4 C 9.53 g/m*3 13.4 C 0 km/h
502 02-06-2009 04:03:10 13.4 C 9.42 g/m*3 13.4 C 0 km/h
503 02-06-2009 04:15:10 13.2 C 9.3 g/m*3 13.2 C 0 km/h
504 02-06-2009 04:27:10 13 C 9.19 g/m*3 13 C 0 km/h
505 02-06-2009 04:39:10 12.9 C 9.35 g/m*3 12.9 C 0 km/h
506 02-06-2009 04:51:10 12.8 C 9.3 g/m*3 12.8 C 0 km/h
507 02-06-2009 05:03:10 12.7 C 9.35 g/m*3 12.7 C 0 km/h
508 02-06-2009 05:15:11 12.5 C 9.24 g/m*3 12.5 C 0 km/h
509 02-06-2009 05:27:11 12.4 C 9.18 g/m*3 12.4 C 0 km/h
510 02-06-2009 05:39:11 12.4 C 9.18 g/m*3 12.4 C 0 km/h
511 02-06-2009 05:51:11 12.4 C 9.18 g/m*3 12.4 C 0 km/h
512 02-06-2009 06:03:11 12.4 C 9.18 g/m*3 12.4 C 0 km/h
513 02-06-2009 06:15:11 12.6 C 9.18 g/m*3 12.6 C 0 km/h
514 02-06-2009 06:27:11 12.9 C 8.9 g/m*3 12.9 C 0 km/h
515 02-06-2009 06:39:54 13.1 C 8.22 g/m*3 13.1 C 0 km/h
516 02-06-2009 06:51:54 13.5 C 7.95 g/m*3 13.5 C 0 km/h
517 02-06-2009 07:03:53 13.6 C 7.77 g/m*3 13.6 C 0 km/h
518 02-06-2009 07:15:54 13.7 C 7.7 g/m*3 13.7 C 0 km/h
519 02-06-2009 07:27:54 13.8 C 7.86 g/m*3 13.8 C 0 km/h
520 02-06-2009 07:39:53 13.7 C 7.7 g/m*3 13.7 C 0 km/h
521 02-06-2009 07:51:53 14 C 7.6 g/m*3 14 C 0 km/h
522 02-06-2009 08:03:53 14.2 C 7.82 g/m*3 14.2 C 0 km/h
523 02-06-2009 08:15:53 14.4 C 7.91 g/m*3 14.4 C 0 km/h
524 02-06-2009 08:27:53 14.6 C 7.63 g/m*3 14.6 C 0 km/h
525 02-06-2009 08:39:53 14.7 C 7.68 g/m*3 14.7 C 0 km/h
Sensor: Nr:Datum:Temp:Abs-Feuchte:Windchill:Wind:
Aussen-T/F 526 02-06-2009 08:51:53 15.1 C 7.74 g/m*3 15.1 C 0 km/h
527 02-06-2009 09:03:53 15.5 C 7.8 g/m*3 15.5 C 0 km/h
528 02-06-2009 09:15:52 15.8 C 7.81 g/m*3 15.8 C 0 km/h
529 02-06-2009 09:27:52 16 C 7.63 g/m*3 16 C 0 km/h
530 02-06-2009 09:39:53 16.5 C 7.86 g/m*3 16.5 C 0 km/h
531 02-06-2009 09:51:52 17 C 7.81 g/m*3 17 C 0 km/h
532 02-06-2009 10:03:52 17.6 C 7.8 g/m*3 17.6 C 0 km/h
533 02-06-2009 10:15:51 18 C 7.83 g/m*3 18 C 0 km/h
534 02-06-2009 10:27:51 18.3 C 7.82 g/m*3 18.3 C 0 km/h
535 02-06-2009 10:39:52 18.8 C 7.73 g/m*3 18.8 C 0 km/h
536 02-06-2009 10:51:51 18.8 C 7.57 g/m*3 18.8 C 0 km/h
537 02-06-2009 11:03:51 19.3 C 7.8 g/m*3 19.3 C 0 km/h
538 02-06-2009 11:15:52 19.5 C 7.89 g/m*3 19.5 C 0 km/h
539 02-06-2009 11:27:52 20.6 C 8.23 g/m*3 20.6 C 0 km/h
540 02-06-2009 11:39:51 20.5 C 8.19 g/m*3 20.5 C 0 km/h
541 02-06-2009 11:51:51 20.8 C 8.15 g/m*3 20.8 C 0 km/h
542 02-06-2009 12:03:51 21.8 C 7.87 g/m*3 21.8 C 0 km/h
543 02-06-2009 12:15:51 22.4 C 7.75 g/m*3 22.4 C 0 km/h
544 02-06-2009 12:27:51 23.8 C 7.74 g/m*3 23.8 C 0 km/h
545 02-06-2009 12:39:50 23.2 C 7.28 g/m*3 23.2 C 0 km/h
546 02-06-2009 12:51:51 23.8 C 7.31 g/m*3 23.8 C 0 km/h
547 02-06-2009 13:03:50 24.1 C 7 g/m*3 24.1 C 0 km/h
548 02-06-2009 13:15:50 24.3 C 6.86 g/m*3 24.3 C 0 km/h
549 02-06-2009 13:27:50 24.4 C 6.45 g/m*3 24.4 C 0 km/h
550 02-06-2009 13:39:50 24.6 C 5.85 g/m*3 24.6 C 0 km/h
Sensor: Nr:Datum:Temp:Abs-Feuchte:Windchill:Wind:
Aussen-T/F 551 02-06-2009 13:51:50 24.4 C 5.56 g/m*3 24.4 C 0 km/h
552 02-06-2009 14:03:50 24.3 C 5.53 g/m*3 24.3 C 0 km/h
553 02-06-2009 14:15:49 24.6 C 5.85 g/m*3 24.6 C 0 km/h
554 02-06-2009 14:27:49 24 C 5.87 g/m*3 24 C 0 km/h
555 02-06-2009 14:39:50 25.2 C 5.82 g/m*3 25.2 C 0 km/h
556 02-06-2009 14:51:49 24.6 C 5.63 g/m*3 24.6 C 0 km/h
557 02-06-2009 15:03:49 24.7 C 5.21 g/m*3 24.7 C 0 km/h
558 02-06-2009 15:15:48 25.4 C 5.41 g/m*3 25.4 C 0 km/h
559 02-06-2009 15:27:48 25.7 C 5.03 g/m*3 25.7 C 0 km/h
560 02-06-2009 15:39:49 25.9 C 5.57 g/m*3 25.9 C 0 km/h
561 02-06-2009 15:51:48 27 C 5.4 g/m*3 27 C 0 km/h
562 02-06-2009 16:03:48 26.5 C 5.76 g/m*3 26.5 C 0 km/h
563 02-06-2009 16:15:49 26 C 5.11 g/m*3 26 C 0 km/h
564 02-06-2009 16:27:49 26.7 C 5.06 g/m*3 26.7 C 0 km/h
565 02-06-2009 16:39:48 27.1 C 5.18 g/m*3 27.1 C 0 km/h
566 02-06-2009 16:51:48 27 C 5.15 g/m*3 27 C 0 km/h
567 02-06-2009 17:03:48 27.8 C 5.38 g/m*3 27.8 C 0 km/h
568 02-06-2009 17:15:48 27.5 C 5.29 g/m*3 27.5 C 0 km/h
569 02-06-2009 17:27:49 27.1 C 5.18 g/m*3 27.1 C 0 km/h
570 02-06-2009 17:39:47 27.8 C 5.38 g/m*3 27.8 C 0 km/h
571 02-06-2009 17:51:48 27.6 C 5.32 g/m*3 27.6 C 0 km/h
572 02-06-2009 18:03:48 27.8 C 5.38 g/m*3 27.8 C 0 km/h
573 02-06-2009 18:15:47 28.1 C 5.47 g/m*3 28.1 C 0 km/h
574 02-06-2009 18:27:47 28.5 C 5.59 g/m*3 28.5 C 0 km/h
575 02-06-2009 18:39:47 29.2 C 5.81 g/m*3 29.2 C 0 km/h
Sensor: Nr:Datum:Temp:Abs-Feuchte:Windchill:Wind:
Aussen-T/F 576 02-06-2009 18:51:47 27.5 C 5.29 g/m*3 27.5 C 0 km/h
577 02-06-2009 19:03:47 28.6 C 5.62 g/m*3 28.6 C 0 km/h
578 02-06-2009 19:15:46 28.2 C 5.5 g/m*3 28.2 C 0 km/h
579 02-06-2009 19:27:46 28.1 C 5.47 g/m*3 28.1 C 0 km/h
580 02-06-2009 19:39:47 27.4 C 5.26 g/m*3 27.4 C 0 km/h
581 02-06-2009 19:51:46 27.9 C 5.68 g/m*3 27.9 C 0 km/h
582 02-06-2009 20:03:46 27.6 C 5.59 g/m*3 27.6 C 0 km/h
583 02-06-2009 20:15:46 27.3 C 5.49 g/m*3 27.3 C 0 km/h
584 02-06-2009 20:27:46 26.4 C 5.73 g/m*3 26.4 C 0 km/h
585 02-06-2009 20:39:46 25.3 C 5.85 g/m*3 25.3 C 0 km/h
586 02-06-2009 20:51:46 24.2 C 5.72 g/m*3 24.2 C 0 km/h
587 02-06-2009 21:03:45 23.9 C 5.62 g/m*3 23.9 C 0 km/h
588 02-06-2009 21:15:46 23.3 C 5.23 g/m*3 23.3 C 0 km/h
589 02-06-2009 21:27:46 22.7 C 5.46 g/m*3 22.7 C 0 km/h
590 02-06-2009 21:39:45 22.4 C 5.56 g/m*3 22.4 C 0 km/h
591 02-06-2009 21:51:13 22.1 C 5.47 g/m*3 22.1 C 0 km/h
592 02-06-2009 22:03:13 21.7 C 5.72 g/m*3 21.7 C 0 km/h
593 02-06-2009 22:15:13 21.5 C 5.66 g/m*3 21.5 C 0 km/h
594 02-06-2009 22:27:13 21.2 C 5.56 g/m*3 21.2 C 0 km/h
595 02-06-2009 22:39:13 20.9 C 5.83 g/m*3 20.9 C 0 km/h
596 02-06-2009 22:51:13 20.6 C 5.91 g/m*3 20.6 C 0 km/h
597 02-06-2009 23:03:13 20.3 C 5.8 g/m*3 20.3 C 0 km/h
598 02-06-2009 23:15:13 20.2 C 5.77 g/m*3 20.2 C 0 km/h
599 02-06-2009 23:27:45 19.9 C 5.84 g/m*3 19.9 C 0 km/h
600 02-06-2009 23:39:45 19.7 C 5.77 g/m*3 19.7 C 0 km/h
Sensor: Nr:Datum:Temp:Abs-Feuchte:Windchill:Wind:
Aussen-T/F 601 02-06-2009 23:51:45 19.9 C 6.01 g/m*3 19.9 C 0 km/h
602 03-06-2009 00:03:45 19.7 C 5.77 g/m*3 19.7 C 0 km/h
603 03-06-2009 00:15:45 19.4 C 5.67 g/m*3 19.4 C 0 km/h
604 03-06-2009 00:27:45 19 C 5.38 g/m*3 19 C 0 km/h
605 03-06-2009 00:39:44 18.6 C 5.57 g/m*3 18.6 C 0 km/h
606 03-06-2009 00:51:45 18.2 C 5.44 g/m*3 18.2 C 0 km/h
607 03-06-2009 01:03:44 17.9 C 5.5 g/m*3 17.9 C 0 km/h
608 03-06-2009 01:15:44 17.7 C 5.43 g/m*3 17.7 C 0 km/h
609 03-06-2009 01:27:44 17.3 C 5.3 g/m*3 17.3 C 0 km/h
610 03-06-2009 01:39:44 17.1 C 5.24 g/m*3 17.1 C 0 km/h
611 03-06-2009 01:51:44 16.8 C 5.29 g/m*3 16.8 C 0 km/h
612 03-06-2009 02:03:44 16.4 C 5.16 g/m*3 16.4 C 0 km/h
613 03-06-2009 02:15:43 16 C 5.18 g/m*3 16 C 0 km/h
614 03-06-2009 02:27:43 15.7 C 5.22 g/m*3 15.7 C 0 km/h
615 03-06-2009 02:39:44 15.4 C 5.65 g/m*3 15.4 C 0 km/h
616 03-06-2009 02:52:45 15.1 C 5.81 g/m*3 15.1 C 0 km/h
617 03-06-2009 03:04:45 15 C 5.77 g/m*3 15 C 0 km/h
618 03-06-2009 03:16:45 14.6 C 5.88 g/m*3 14.6 C 0 km/h
619 03-06-2009 03:28:45 14.4 C 5.81 g/m*3 14.4 C 0 km/h
620 03-06-2009 03:40:45 14.2 C 5.74 g/m*3 14.2 C 0 km/h
621 03-06-2009 03:52:45 13.8 C 5.96 g/m*3 13.8 C 0 km/h
622 03-06-2009 04:04:45 13.7 C 6.04 g/m*3 13.7 C 0 km/h
623 03-06-2009 04:16:44 13.6 C 6 g/m*3 13.6 C 0 km/h
624 03-06-2009 04:28:44 13.5 C 5.97 g/m*3 13.5 C 0 km/h
625 03-06-2009 04:40:45 13.3 C 6.01 g/m*3 13.3 C 0 km/h
Sensor: Nr:Datum:Temp:Abs-Feuchte:Windchill:Wind:
Aussen-T/F 626 03-06-2009 04:52:44 13.1 C 5.93 g/m*3 13.1 C 0 km/h
627 03-06-2009 05:04:44 13 C 5.9 g/m*3 13 C 0 km/h
628 03-06-2009 05:16:44 13 C 5.9 g/m*3 13 C 0 km/h
629 03-06-2009 05:28:44 12.8 C 5.94 g/m*3 12.8 C 0 km/h
630 03-06-2009 05:40:44 12.7 C 6.01 g/m*3 12.7 C 0 km/h
631 03-06-2009 05:52:44 12.7 C 6.01 g/m*3 12.7 C 0 km/h
632 03-06-2009 06:04:43 12.9 C 6.2 g/m*3 12.9 C 0 km/h
633 03-06-2009 06:16:43 13 C 6.24 g/m*3 13 C 0 km/h
634 03-06-2009 06:28:43 13 C 6.24 g/m*3 13 C 0 km/h
635 03-06-2009 06:40:43 13 C 6.35 g/m*3 13 C 0 km/h
636 03-06-2009 06:52:43 12.9 C 6.54 g/m*3 12.9 C 0 km/h
637 03-06-2009 07:04:42 12.8 C 6.27 g/m*3 12.8 C 0 km/h
638 03-06-2009 07:16:43 12.7 C 6.35 g/m*3 12.7 C 0 km/h
639 03-06-2009 07:28:43 12.5 C 6.05 g/m*3 12.5 C 0 km/h
640 03-06-2009 07:40:43 12.8 C 6.16 g/m*3 12.8 C 0 km/h
641 03-06-2009 07:52:42 12.9 C 6.2 g/m*3 12.9 C 0 km/h
642 03-06-2009 08:04:43 12.8 C 5.94 g/m*3 12.8 C 0 km/h
643 03-06-2009 08:16:42 12.8 C 5.94 g/m*3 12.8 C 0 km/h
644 03-06-2009 08:28:42 13 C 5.9 g/m*3 13 C 0 km/h
645 03-06-2009 08:40:42 13 C 5.67 g/m*3 13 C 0 km/h
646 03-06-2009 08:52:42 13.1 C 5.48 g/m*3 13.1 C 0 km/h
647 03-06-2009 09:04:42 13.5 C 5.5 g/m*3 13.5 C 0 km/h
648 03-06-2009 09:16:41 13.9 C 5.39 g/m*3 13.9 C 0 km/h
649 03-06-2009 09:28:41 13.9 C 5.04 g/m*3 13.9 C 0 km/h
650 03-06-2009 09:40:41 14.6 C 5.13 g/m*3 14.6 C 0 km/h
Sensor: Nr:Datum:Temp:Abs-Feuchte:Windchill:Wind:
Aussen-T/F 651 03-06-2009 09:52:41 14.7 C 5.67 g/m*3 14.7 C 0 km/h
652 03-06-2009 10:04:41 14.2 C 5.62 g/m*3 14.2 C 0 km/h
653 03-06-2009 10:16:41 14.9 C 5.23 g/m*3 14.9 C 0 km/h
654 03-06-2009 10:28:41 14.6 C 5.63 g/m*3 14.6 C 0 km/h
655 03-06-2009 10:40:41 15 C 5.39 g/m*3 15 C 0 km/h
656 03-06-2009 10:52:41 15.4 C 5.26 g/m*3 15.4 C 0 km/h
657 03-06-2009 11:04:40 14.9 C 5.23 g/m*3 14.9 C 0 km/h
658 03-06-2009 11:16:41 15.2 C 5.19 g/m*3 15.2 C 0 km/h
659 03-06-2009 11:28:41 16 C 5.31 g/m*3 16 C 0 km/h
660 03-06-2009 11:40:40 16.8 C 5.43 g/m*3 16.8 C 0 km/h
661 03-06-2009 11:52:40 17 C 5.21 g/m*3 17 C 0 km/h
662 03-06-2009 12:04:40 16.7 C 4.97 g/m*3 16.7 C 0 km/h
663 03-06-2009 12:16:40 16.8 C 4.86 g/m*3 16.8 C 0 km/h
664 03-06-2009 12:28:40 17.7 C 4.98 g/m*3 17.7 C 0 km/h
665 03-06-2009 12:40:39 17.9 C 4.73 g/m*3 17.9 C 0 km/h
666 03-06-2009 12:52:40 18.8 C 4.83 g/m*3 18.8 C 0 km/h
667 03-06-2009 13:04:40 17.3 C 4.42 g/m*3 17.3 C 0 km/h
668 03-06-2009 13:16:39 18.2 C 4.66 g/m*3 18.2 C 0 km/h
669 03-06-2009 13:28:39 19.5 C 4.53 g/m*3 19.5 C 0 km/h
670 03-06-2009 13:40:39 18.4 C 4.09 g/m*3 18.4 C 0 km/h
671 03-06-2009 13:52:39 19.8 C 4.27 g/m*3 19.8 C 0 km/h
672 03-06-2009 14:04:39 19.3 C 4.15 g/m*3 19.3 C 0 km/h
673 03-06-2009 14:16:38 20.1 C 4.35 g/m*3 20.1 C 0 km/h
674 03-06-2009 14:28:38 19.3 C 4.31 g/m*3 19.3 C 0 km/h
675 03-06-2009 14:40:39 19.1 C 4.43 g/m*3 19.1 C 0 km/h
Sensor: Nr:Datum:Temp:Abs-Feuchte:Windchill:Wind:
Aussen-T/F 676 03-06-2009 14:52:38 19.7 C 4.92 g/m*3 19.7 C 0 km/h
677 03-06-2009 15:04:38 20.5 C 4.45 g/m*3 20.5 C 0 km/h
678 03-06-2009 15:16:39 20 C 4.67 g/m*3 20 C 0 km/h
679 03-06-2009 15:28:39 20.8 C 4.53 g/m*3 20.8 C 0 km/h
680 03-06-2009 15:40:38 20.4 C 4.6 g/m*3 20.4 C 0 km/h
681 03-06-2009 15:52:37 20.9 C 4.55 g/m*3 20.9 C 0 km/h
682 03-06-2009 16:04:38 20.1 C 4.52 g/m*3 20.1 C 0 km/h
683 03-06-2009 16:16:38 20.4 C 4.42 g/m*3 20.4 C 0 km/h
684 03-06-2009 16:28:38 20.2 C 4.55 g/m*3 20.2 C 0 km/h
685 03-06-2009 16:40:37 20.3 C 4.75 g/m*3 20.3 C 0 km/h
686 03-06-2009 16:52:38 20 C 4.32 g/m*3 20 C 0 km/h
687 03-06-2009 17:04:37 20.3 C 4.57 g/m*3 20.3 C 0 km/h
688 03-06-2009 17:16:37 20.6 C 4.65 g/m*3 20.6 C 0 km/h
689 03-06-2009 17:28:37 20.7 C 4.32 g/m*3 20.7 C 0 km/h
690 03-06-2009 17:40:36 19.4 C 4.34 g/m*3 19.4 C 0 km/h
691 03-06-2009 17:52:37 20.6 C 4.12 g/m*3 20.6 C 0 km/h
692 03-06-2009 18:04:36 19.2 C 3.79 g/m*3 19.2 C 0 km/h
693 03-06-2009 18:16:36 20.3 C 4.05 g/m*3 20.3 C 0 km/h
694 03-06-2009 18:28:36 19.3 C 3.98 g/m*3 19.3 C 0 km/h
695 03-06-2009 18:40:37 20 C 4.32 g/m*3 20 C 0 km/h
696 03-06-2009 18:52:36 19 C 4.24 g/m*3 19 C 0 km/h
697 03-06-2009 19:04:36 19.1 C 4.26 g/m*3 19.1 C 0 km/h
698 03-06-2009 19:16:36 18.8 C 4.51 g/m*3 18.8 C 0 km/h
699 03-06-2009 19:28:36 18.1 C 4.64 g/m*3 18.1 C 0 km/h
700 03-06-2009 19:40:36 18 C 4.61 g/m*3 18 C 0 km/h
Sensor: Nr:Datum:Temp:Abs-Feuchte:Windchill:Wind:
Aussen-T/F 701 03-06-2009 19:52:36 18 C 4.76 g/m*3 18 C 0 km/h
702 03-06-2009 20:04:36 17.7 C 4.83 g/m*3 17.7 C 0 km/h
703 03-06-2009 20:16:36 16.9 C 5.03 g/m*3 16.9 C 0 km/h
704 03-06-2009 20:28:36 16.6 C 5.09 g/m*3 16.6 C 0 km/h
705 03-06-2009 20:40:35 16.4 C 5.02 g/m*3 16.4 C 0 km/h
706 03-06-2009 20:52:34 16.5 C 4.91 g/m*3 16.5 C 0 km/h
707 03-06-2009 21:04:35 16.1 C 4.8 g/m*3 16.1 C 0 km/h
708 03-06-2009 21:16:35 16 C 4.77 g/m*3 16 C 0 km/h
709 03-06-2009 21:28:35 15.9 C 4.88 g/m*3 15.9 C 0 km/h
710 03-06-2009 21:40:34 15.5 C 4.63 g/m*3 15.5 C 0 km/h
711 03-06-2009 21:52:35 15.4 C 4.73 g/m*3 15.4 C 0 km/h
712 03-06-2009 22:05:35 15.3 C 4.7 g/m*3 15.3 C 0 km/h
713 03-06-2009 22:17:35 15.2 C 4.67 g/m*3 15.2 C 0 km/h
714 03-06-2009 22:29:35 15 C 4.62 g/m*3 15 C 0 km/h
715 03-06-2009 22:41:35 14.7 C 4.78 g/m*3 14.7 C 0 km/h
716 03-06-2009 22:53:35 14.9 C 4.84 g/m*3 14.9 C 0 km/h
717 03-06-2009 23:05:35 14.8 C 4.69 g/m*3 14.8 C 0 km/h
718 03-06-2009 23:17:35 14.6 C 4.88 g/m*3 14.6 C 0 km/h
719 03-06-2009 23:29:36 14.5 C 4.97 g/m*3 14.5 C 0 km/h
720 03-06-2009 23:41:36 14.2 C 5.01 g/m*3 14.2 C 0 km/h
721 03-06-2009 23:53:36 14 C 5.07 g/m*3 14 C 0 km/h
722 04-06-2009 00:05:36 13.7 C 5.21 g/m*3 13.7 C 0 km/h
723 04-06-2009 00:17:36 13.7 C 5.33 g/m*3 13.7 C 0 km/h
724 04-06-2009 00:29:36 13.4 C 5.23 g/m*3 13.4 C 0 km/h
725 04-06-2009 00:41:36 13.1 C 5.14 g/m*3 13.1 C 0 km/h
Sensor: Nr:Datum:Temp:Abs-Feuchte:Windchill:Wind:
Aussen-T/F 726 04-06-2009 00:53:36 13 C 5.22 g/m*3 13 C 0 km/h
727 04-06-2009 01:05:36 12.7 C 5.34 g/m*3 12.7 C 0 km/h
728 04-06-2009 01:17:36 12.6 C 5.42 g/m*3 12.6 C 0 km/h
729 04-06-2009 01:29:36 12.7 C 5.45 g/m*3 12.7 C 0 km/h
730 04-06-2009 01:41:36 12.6 C 5.42 g/m*3 12.6 C 0 km/h
731 04-06-2009 01:53:36 12.5 C 5.5 g/m*3 12.5 C 0 km/h
732 04-06-2009 02:05:36 12.5 C 4.95 g/m*3 12.5 C 0 km/h
733 04-06-2009 02:17:36 12.4 C 4.7 g/m*3 12.4 C 0 km/h
734 04-06-2009 02:29:36 12 C 4.48 g/m*3 12 C 0 km/h
735 04-06-2009 02:41:36 11.9 C 4.45 g/m*3 11.9 C 0 km/h
736 04-06-2009 02:53:36 11.7 C 4.18 g/m*3 11.7 C 0 km/h
737 04-06-2009 03:05:36 11.5 C 4.13 g/m*3 11.5 C 0 km/h
738 04-06-2009 03:17:37 11.2 C 3.95 g/m*3 11.2 C 0 km/h
739 04-06-2009 03:29:37 11 C 4 g/m*3 11 C 0 km/h
740 04-06-2009 03:41:37 10.8 C 4.15 g/m*3 10.8 C 0 km/h
741 04-06-2009 03:53:37 10.9 C 4.28 g/m*3 10.9 C 0 km/h
742 04-06-2009 04:05:37 10.8 C 4.15 g/m*3 10.8 C 0 km/h
743 04-06-2009 04:17:37 10.7 C 4.22 g/m*3 10.7 C 0 km/h
744 04-06-2009 04:29:37 10.6 C 4.29 g/m*3 10.6 C 0 km/h
745 04-06-2009 04:41:37 10.6 C 4.39 g/m*3 10.6 C 0 km/h
746 04-06-2009 04:53:37 10.7 C 4.62 g/m*3 10.7 C 0 km/h
747 04-06-2009 05:05:37 10.5 C 4.85 g/m*3 10.5 C 0 km/h
748 04-06-2009 05:17:37 10.5 C 4.95 g/m*3 10.5 C 0 km/h
749 04-06-2009 05:29:37 10.6 C 5.08 g/m*3 10.6 C 0 km/h
750 04-06-2009 05:41:37 10.7 C 5.11 g/m*3 10.7 C 0 km/h
Sensor: Nr:Datum:Temp:Abs-Feuchte:Windchill:Wind:
Aussen-T/F 751 04-06-2009 05:53:37 10.7 C 5.01 g/m*3 10.7 C 0 km/h
752 04-06-2009 06:05:37 10.7 C 5.11 g/m*3 10.7 C 0 km/h
753 04-06-2009 06:17:37 10.7 C 5.01 g/m*3 10.7 C 0 km/h
754 04-06-2009 06:29:37 10.5 C 4.75 g/m*3 10.5 C 0 km/h
755 04-06-2009 06:41:37 10.6 C 4.78 g/m*3 10.6 C 0 km/h
756 04-06-2009 06:53:35 10.7 C 4.91 g/m*3 10.7 C 0 km/h
757 04-06-2009 07:05:35 10.7 C 4.91 g/m*3 10.7 C 0 km/h
758 04-06-2009 07:17:35 11 C 4.8 g/m*3 11 C 0 km/h
759 04-06-2009 07:29:35 10.8 C 5.04 g/m*3 10.8 C 0 km/h
760 04-06-2009 07:41:35 10.8 C 5.34 g/m*3 10.8 C 0 km/h
761 04-06-2009 07:53:35 11 C 5.31 g/m*3 11 C 0 km/h
762 04-06-2009 08:05:34 11.6 C 5.4 g/m*3 11.6 C 0 km/h
763 04-06-2009 08:17:34 11.8 C 5.37 g/m*3 11.8 C 0 km/h
764 04-06-2009 08:29:34 11.9 C 5.3 g/m*3 11.9 C 0 km/h
765 04-06-2009 08:41:34 12.2 C 5.18 g/m*3 12.2 C 0 km/h
766 04-06-2009 08:53:34 12.5 C 5.17 g/m*3 12.5 C 0 km/h
767 04-06-2009 09:05:33 13 C 4.88 g/m*3 13 C 0 km/h
768 04-06-2009 09:17:34 12.8 C 4.59 g/m*3 12.8 C 0 km/h
769 04-06-2009 09:29:34 12.3 C 4.13 g/m*3 12.3 C 0 km/h
770 04-06-2009 09:41:34 12.7 C 4.23 g/m*3 12.7 C 0 km/h
771 04-06-2009 09:53:33 12.9 C 4.51 g/m*3 12.9 C 0 km/h
772 04-06-2009 10:05:34 13 C 4.2 g/m*3 13 C 0 km/h
773 04-06-2009 10:17:33 13.1 C 4.45 g/m*3 13.1 C 0 km/h
774 04-06-2009 10:29:33 14.1 C 4.49 g/m*3 14.1 C 0 km/h
775 04-06-2009 10:41:33 13.5 C 4.33 g/m*3 13.5 C 0 km/h
Sensor: Nr:Datum:Temp:Abs-Feuchte:Windchill:Wind:
Aussen-T/F 776 04-06-2009 10:53:33 13.2 C 4.36 g/m*3 13.2 C 0 km/h
777 04-06-2009 11:05:33 14 C 4.46 g/m*3 14 C 0 km/h
778 04-06-2009 11:17:32 14.7 C 4.53 g/m*3 14.7 C 0 km/h
779 04-06-2009 11:29:32 13.3 C 4.04 g/m*3 13.3 C 0 km/h
780 04-06-2009 11:41:32 13.1 C 3.99 g/m*3 13.1 C 0 km/h
781 04-06-2009 11:53:32 13.5 C 4.33 g/m*3 13.5 C 0 km/h
782 04-06-2009 12:05:32 14.7 C 4.53 g/m*3 14.7 C 0 km/h
783 04-06-2009 12:17:32 14.5 C 4.35 g/m*3 14.5 C 0 km/h
784 04-06-2009 12:29:32 14.6 C 4.25 g/m*3 14.6 C 0 km/h
785 04-06-2009 12:41:32 14.4 C 3.96 g/m*3 14.4 C 0 km/h
786 04-06-2009 12:53:32 14.7 C 4.28 g/m*3 14.7 C 0 km/h
787 04-06-2009 13:05:31 14.7 C 4.41 g/m*3 14.7 C 0 km/h
788 04-06-2009 13:17:32 15.7 C 4.01 g/m*3 15.7 C 0 km/h
789 04-06-2009 13:29:32 15.6 C 3.72 g/m*3 15.6 C 0 km/h
790 04-06-2009 13:41:31 14.9 C 3.95 g/m*3 14.9 C 0 km/h
791 04-06-2009 13:53:31 14.4 C 3.96 g/m*3 14.4 C 0 km/h
792 04-06-2009 14:05:31 15.1 C 4.13 g/m*3 15.1 C 0 km/h
793 04-06-2009 14:17:31 16.2 C 4.14 g/m*3 16.2 C 0 km/h
794 04-06-2009 14:29:31 15.3 C 3.79 g/m*3 15.3 C 0 km/h
795 04-06-2009 14:41:31 14.8 C 3.67 g/m*3 14.8 C 0 km/h
796 04-06-2009 14:53:30 15.8 C 3.9 g/m*3 15.8 C 0 km/h
797 04-06-2009 15:05:30 16.3 C 4.16 g/m*3 16.3 C 0 km/h
798 04-06-2009 15:17:30 17.5 C 3.88 g/m*3 17.5 C 0 km/h
799 04-06-2009 15:29:30 16.1 C 3.56 g/m*3 16.1 C 0 km/h
800 04-06-2009 15:41:30 15.9 C 3.79 g/m*3 15.9 C 0 km/h
Sensor: Nr:Datum:Temp:Abs-Feuchte:Windchill:Wind:
Aussen-T/F 801 04-06-2009 15:53:30 16.4 C 3.77 g/m*3 16.4 C 0 km/h
802 04-06-2009 16:05:30 16.3 C 3.75 g/m*3 16.3 C 0 km/h
803 04-06-2009 16:17:30 16.2 C 3.59 g/m*3 16.2 C 0 km/h
804 04-06-2009 16:29:30 17.2 C 3.66 g/m*3 17.2 C 0 km/h
805 04-06-2009 16:41:30 16.5 C 3.51 g/m*3 16.5 C 0 km/h
806 04-06-2009 16:53:29 16.2 C 3.72 g/m*3 16.2 C 0 km/h
807 04-06-2009 17:05:29 16.1 C 3.84 g/m*3 16.1 C 0 km/h
808 04-06-2009 17:17:29 16.4 C 3.91 g/m*3 16.4 C 0 km/h
809 04-06-2009 17:29:29 15.6 C 3.86 g/m*3 15.6 C 0 km/h
810 04-06-2009 17:41:29 15.6 C 3.99 g/m*3 15.6 C 0 km/h
811 04-06-2009 17:53:28 16.2 C 4.14 g/m*3 16.2 C 0 km/h
812 04-06-2009 18:05:29 16 C 4.09 g/m*3 16 C 0 km/h
813 04-06-2009 18:17:29 15.8 C 4.17 g/m*3 15.8 C 0 km/h
814 04-06-2009 18:29:29 16.1 C 4.25 g/m*3 16.1 C 0 km/h
815 04-06-2009 18:41:29 15.4 C 4.07 g/m*3 15.4 C 0 km/h
816 04-06-2009 18:53:28 15.7 C 4.28 g/m*3 15.7 C 0 km/h
817 04-06-2009 19:05:28 15.3 C 4.18 g/m*3 15.3 C 0 km/h
818 04-06-2009 19:17:28 15.4 C 4.2 g/m*3 15.4 C 0 km/h
819 04-06-2009 19:29:28 15.4 C 4.34 g/m*3 15.4 C 0 km/h
820 04-06-2009 19:41:28 14.7 C 4.41 g/m*3 14.7 C 0 km/h
821 04-06-2009 19:53:28 15.1 C 4.52 g/m*3 15.1 C 0 km/h
822 04-06-2009 20:05:28 14.9 C 4.59 g/m*3 14.9 C 0 km/h
823 04-06-2009 20:17:27 14.9 C 4.59 g/m*3 14.9 C 0 km/h
824 04-06-2009 20:29:27 14.7 C 4.66 g/m*3 14.7 C 0 km/h
825 04-06-2009 20:41:27 14.5 C 4.73 g/m*3 14.5 C 0 km/h
Sensor: Nr:Datum:Temp:Abs-Feuchte:Windchill:Wind:
Aussen-T/F 826 04-06-2009 20:53:27 14.1 C 4.61 g/m*3 14.1 C 0 km/h
827 04-06-2009 21:05:27 14 C 4.7 g/m*3 14 C 0 km/h
828 04-06-2009 21:17:27 13.8 C 4.77 g/m*3 13.8 C 0 km/h
829 04-06-2009 21:29:27 13.7 C 4.86 g/m*3 13.7 C 0 km/h
830 04-06-2009 21:41:27 13.5 C 4.91 g/m*3 13.5 C 0 km/h
831 04-06-2009 21:53:27 13.5 C 5.03 g/m*3 13.5 C 0 km/h
832 04-06-2009 22:06:22 13.3 C 4.97 g/m*3 13.3 C 0 km/h
833 04-06-2009 22:18:22 13.2 C 4.94 g/m*3 13.2 C 0 km/h
834 04-06-2009 22:30:22 13 C 4.99 g/m*3 13 C 0 km/h
835 04-06-2009 22:42:22 13 C 4.88 g/m*3 13 C 0 km/h
836 04-06-2009 22:54:22 12.9 C 4.96 g/m*3 12.9 C 0 km/h
837 04-06-2009 23:06:22 12.7 C 5.01 g/m*3 12.7 C 0 km/h
838 04-06-2009 23:18:22 12.4 C 4.92 g/m*3 12.4 C 0 km/h
839 04-06-2009 23:30:22 12.2 C 4.86 g/m*3 12.2 C 0 km/h
840 04-06-2009 23:42:22 12.1 C 4.93 g/m*3 12.1 C 0 km/h
841 04-06-2009 23:54:22 12 C 5.01 g/m*3 12 C 0 km/h

Legende:
   Min
   Max


Maximal/Minimal-Werte vom 29.05.2009 - 04.06.2009

Sensor Min Max Avg
Temp
(Aussen-T/F)
9.1 °C
29-05-2009  06:11:33
29.4 °C
30-05-2009  18:12:57
17.95 °C
Abs-Feuchte
(Aussen-T/F)
3.04 g/m*3
29-05-2009  11:23:28
12.69 g/m*3
01-06-2009  14:26:59
6.33 g/m*3
Windchill
(Aussen-T/F)
9.1 C
29-05-2009  06:11:33
29.4 C
30-05-2009  18:12:57
17.94 C

Die Daten stammen von einer Davis Vantage Pro 2 Wetter-Station und werden unter Linux mit der Software wview2wettercgi und aufbereitet. Alle Angaben erfolgen ohne Gewähr für ihre Vollständigkeit oder Richtigkeit.
Kontakt: Rainer Krienke krienke@uni-koblenz.de . Meine Webseiten an der Uni Koblenz oder privat.
Version: $Revision: 0.78 $